METAR Italia - 12 Dec 2017 - 2348 UTC - RocketRoute WX - rrwx.com
LIEA 122320Z 13004KT 9999 -DZ FEW025 11/11 Q1018 LIBD 122320Z 22006KT CAVOK 11/07 Q1018 LIME 122320Z 20004KT 160V220 2000 BR SCT070 02/02 Q1014 NOSIG LIPE 122320Z 27007KT 8000 NSC 04/02 Q1015 LIRN 122320Z 19010KT 170V230 9999 FEW025 16/10 Q1018 NOSIG LICC 122320Z 22007KT CAVOK 08/05 Q1021 LIRA 122250Z 28005KT 250V330 9999 RA SCT015 BKN030 12/11 Q1016 LIBC   LIEE 122320Z 34004KT 300V360 CAVOK 13/11 Q1019 LIPY 122250Z 28003KT 9999 -RA SCT010 BKN040 09/09 Q1016 LIRF 122320Z VRB03KT 5000 RA FEW010 SCT020 BKN030 13/12 Q1017 NOSIG LIMJ 122320Z 03006KT 9999 FEW045 10/08 Q1014 LICD   LIML 122320Z 24006KT 200V270 0500 R36/P2000VP2000U FG OVC002 02/02 Q1015 NOSIG LIMC 122320Z VRB02KT 9999 R35R/P1500N R17L/0700VP1500D R35L/0650VP1500D BCFG NSC 00/00 Q1014 NOSIG LIEO 122320Z 26007KT 9999 FEW040 11/09 Q1017 LICJ 122320Z 19020G30KT CAVOK 19/01 Q1018 LIBP 122257Z AUTO 36008KT 330V040 9999 -RA BKN006/// OVC066/// 12/10 Q1016 LIRP 122315Z 12003KT 9999 RA SCT020 SCT035 09/09 Q1015 NOSIG LICR 122250Z 13010KT CAVOK 16/08 Q1021 LIMF 122320Z 24003KT 190V270 9999 MIFG NSC M00/M01 Q1015 LIRU   LIPZ 122320Z 31004KT 9000 NSC 06/06 Q1014 NOSIG

RocketRoute WX - rrwx.com weather for pilots